Terminal Aerodrome Forecast
Issued by NWS

Home | Current Version | Previous Version | Text Only | Print | Product List | Glossary On
Versions: 1 2 3 4 5 6 7 8 9 10 11 12 13 14 15 16 17 18 19 20 21 22 23 24 25 26
000
FTUS41 KBGM 232342
TAFITH
TAF
KITH 232342Z 2400/2424 09008KT P6SM -PLRA OVC040
     FM240200 06008KT P6SM -SNPL OVC030
     FM240400 03008KT 3SM -SN OVC015
     FM240600 01008KT 1SM -SN OVC010
     FM241400 33009KT 3SM -SN OVC008
     FM242000 32009KT P6SM -SN OVC015=

USA.gov is the U.S. government's official web portal to all federal, state and local government web resources and services.